createdAt,value
2018-07-24T00:00:09.365Z,82.82
2018-07-24T00:01:09.383Z,83.01
2018-07-24T00:02:09.397Z,82.73
2018-07-24T00:03:09.416Z,82.63
2018-07-24T00:04:09.434Z,82.92
2018-07-24T00:05:09.494Z,82.92
2018-07-24T00:06:09.458Z,82.63
2018-07-24T00:07:09.483Z,82.82
2018-07-24T00:08:09.503Z,82.15
2018-07-24T00:09:09.515Z,82.53
2018-07-24T00:10:09.527Z,82.53
2018-07-24T00:11:09.593Z,82.53
2018-07-24T00:12:09.563Z,82.43
2018-07-24T00:13:09.573Z,82.63
2018-07-24T00:14:09.591Z,82.53
2018-07-24T00:15:09.608Z,82.05
2018-07-24T00:16:09.621Z,82.05
2018-07-24T00:17:09.689Z,82.24
2018-07-24T00:18:09.653Z,82.34
2018-07-24T00:19:09.675Z,82.24
2018-07-24T00:20:09.695Z,82.34
2018-07-24T00:21:09.710Z,82.15
2018-07-24T00:22:09.723Z,82.15
2018-07-24T00:23:09.784Z,82.34
2018-07-24T00:24:09.752Z,82.15
2018-07-24T00:25:09.856Z,82.05
2018-07-24T00:26:09.791Z,81.96
2018-07-24T00:27:09.812Z,82.24
2018-07-24T00:28:09.820Z,81.99
2018-07-24T00:29:09.889Z,81.86
2018-07-24T00:30:09.858Z,81.99
2018-07-24T00:31:09.891Z,81.99
2018-07-24T00:32:09.921Z,81.99
2018-07-24T00:33:09.905Z,81.90
2018-07-24T00:34:09.926Z,82.09
2018-07-24T00:35:09.933Z,81.90
2018-07-24T00:36:09.955Z,81.99
2018-07-24T00:37:10.031Z,82.29
2018-07-24T00:38:09.984Z,81.99
2018-07-24T00:39:09.996Z,81.90
2018-07-24T00:40:10.014Z,81.99
2018-07-24T00:41:10.087Z,81.99
2018-07-24T00:42:10.051Z,81.90
2018-07-24T00:43:10.115Z,81.81
2018-07-24T00:44:10.080Z,81.90
2018-07-24T00:45:10.105Z,82.09
2018-07-24T00:46:10.119Z,82.19
2018-07-24T00:47:10.191Z,82.19
2018-07-24T00:48:10.150Z,82.19
2018-07-24T00:49:10.180Z,82.19
2018-07-24T00:50:10.182Z,82.19
2018-07-24T00:51:10.208Z,82.29
2018-07-24T00:52:10.216Z,82.38
2018-07-24T00:53:10.242Z,82.38
2018-07-24T00:54:10.280Z,82.09
2018-07-24T00:55:10.267Z,82.38
2018-07-24T00:56:10.287Z,82.09
2018-07-24T00:57:10.296Z,82.09
2018-07-24T00:58:10.322Z,82.19
2018-07-24T00:59:10.329Z,82.19
2018-07-24T01:00:10.351Z,82.38
2018-07-24T01:01:10.369Z,82.29
2018-07-24T01:02:10.390Z,82.19
2018-07-24T01:03:10.403Z,82.14
2018-07-24T01:04:10.416Z,82.09
2018-07-24T01:05:10.476Z,82.09
2018-07-24T01:06:10.451Z,81.99
2018-07-24T01:07:10.469Z,82.09
2018-07-24T01:08:10.475Z,82.42
2018-07-24T01:09:10.496Z,82.19
2018-07-24T01:10:10.522Z,82.14
2018-07-24T01:11:10.587Z,82.29
2018-07-24T01:12:10.541Z,82.09
2018-07-24T01:13:10.557Z,82.42
2018-07-24T01:14:10.577Z,82.52
2018-07-24T01:15:10.598Z,82.04
2018-07-24T01:16:10.613Z,81.94
2018-07-24T01:17:10.680Z,82.32
2018-07-24T01:18:10.641Z,82.42
2018-07-24T01:19:10.656Z,82.23
2018-07-24T01:20:10.683Z,82.04
2018-07-24T01:21:10.695Z,82.14
2018-07-24T01:22:10.709Z,82.04
2018-07-24T01:23:10.781Z,82.32
2018-07-24T01:24:10.748Z,81.94
2018-07-24T01:25:10.761Z,82.23
2018-07-24T01:26:10.779Z,82.42
2018-07-24T01:27:10.803Z,82.14
2018-07-24T01:28:10.813Z,82.04
2018-07-24T01:29:10.833Z,82.14
2018-07-24T01:30:10.844Z,82.04
2018-07-24T01:31:10.947Z,81.42
2018-07-24T01:32:10.879Z,81.99
2018-07-24T01:33:10.896Z,81.42
2018-07-24T01:34:10.921Z,81.42
2018-07-24T01:35:10.932Z,81.56
2018-07-24T01:36:10.951Z,81.46
2018-07-24T01:37:10.957Z,82.23
2018-07-24T01:38:10.984Z,82.04
2018-07-24T01:39:11.000Z,81.46
2018-07-24T01:40:11.016Z,81.94
2018-07-24T01:41:11.084Z,81.75
2018-07-24T01:42:11.047Z,81.84
2018-07-24T01:43:11.065Z,82.04
2018-07-24T01:44:11.081Z,82.04
2018-07-24T01:45:11.099Z,82.42
2018-07-24T01:46:11.115Z,82.14
2018-07-24T01:47:11.132Z,82.04
2018-07-24T01:48:11.143Z,82.14
2018-07-24T01:49:11.153Z,81.94
2018-07-24T01:50:11.180Z,81.56
2018-07-24T01:51:11.189Z,81.56
2018-07-24T01:52:11.213Z,81.84
2018-07-24T01:53:11.279Z,81.65
2018-07-24T01:54:11.254Z,81.65
2018-07-24T01:55:11.257Z,81.56
2018-07-24T01:56:11.282Z,81.56
2018-07-24T01:57:11.295Z,82.04
2018-07-24T01:58:11.359Z,81.46
2018-07-24T01:59:11.330Z,81.56
2018-07-24T02:00:11.340Z,81.56
2018-07-24T02:01:11.364Z,81.75
2018-07-24T02:02:11.459Z,82.04
2018-07-24T02:03:11.388Z,82.04
2018-07-24T02:04:11.457Z,82.42
2018-07-24T02:05:11.420Z,81.84
2018-07-24T02:06:11.445Z,81.65
2018-07-24T02:07:11.452Z,81.65
2018-07-24T02:08:11.498Z,81.56
2018-07-24T02:09:11.489Z,81.75
2018-07-24T02:10:11.508Z,81.84
2018-07-24T02:11:11.521Z,81.46
2018-07-24T02:12:11.540Z,81.56
2018-07-24T02:13:11.563Z,81.56
2018-07-24T02:14:11.580Z,81.56
2018-07-24T02:15:11.587Z,81.65
2018-07-24T02:16:11.657Z,81.65
2018-07-24T02:17:11.626Z,81.65
2018-07-24T02:18:11.646Z,81.65
2018-07-24T02:19:11.663Z,81.56
2018-07-24T02:20:11.757Z,81.84
2018-07-24T02:21:11.699Z,81.75
2018-07-24T02:22:11.759Z,81.75
2018-07-24T02:23:11.721Z,81.46
2018-07-24T02:24:11.737Z,81.56
2018-07-24T02:25:11.754Z,81.84
2018-07-24T02:26:11.831Z,81.56
2018-07-24T02:27:11.792Z,82.14
2018-07-24T02:28:11.856Z,81.94
2018-07-24T02:29:11.823Z,82.09
2018-07-24T02:30:11.844Z,81.99
2018-07-24T02:31:11.860Z,82.19
2018-07-24T02:32:11.880Z,81.52
2018-07-24T02:33:11.892Z,82.09
2018-07-24T02:34:11.917Z,81.52
2018-07-24T02:35:11.921Z,82.09
2018-07-24T02:36:11.941Z,82.09
2018-07-24T02:37:11.957Z,82.19
2018-07-24T02:38:11.970Z,81.52
2018-07-24T02:39:11.988Z,81.90
2018-07-24T02:40:12.008Z,81.52
2018-07-24T02:41:12.024Z,81.99
2018-07-24T02:42:12.040Z,81.61
2018-07-24T02:43:12.060Z,81.99
2018-07-24T02:44:12.074Z,81.81
2018-07-24T02:45:12.090Z,81.99
2018-07-24T02:46:12.156Z,81.61
2018-07-24T02:47:12.118Z,81.52
2018-07-24T02:48:12.140Z,81.99
2018-07-24T02:49:12.160Z,81.23
2018-07-24T02:50:12.182Z,81.13
2018-07-24T02:51:12.196Z,81.90
2018-07-24T02:52:12.211Z,81.23
2018-07-24T02:53:12.225Z,81.90
2018-07-24T02:54:12.256Z,81.32
2018-07-24T02:55:12.260Z,81.04
2018-07-24T02:56:12.271Z,81.42
2018-07-24T02:57:12.305Z,81.04
2018-07-24T02:58:12.359Z,80.94
2018-07-24T02:59:12.313Z,81.81
2018-07-24T03:00:12.328Z,81.23
2018-07-24T03:01:12.345Z,81.04
2018-07-24T03:02:12.361Z,81.32
2018-07-24T03:03:12.416Z,80.84
2018-07-24T03:04:12.446Z,81.90
2018-07-24T03:05:12.418Z,81.23
2018-07-24T03:06:12.438Z,81.04
2018-07-24T03:07:12.448Z,81.61
2018-07-24T03:08:12.464Z,81.13
2018-07-24T03:09:12.541Z,81.90
2018-07-24T03:10:12.552Z,81.90
2018-07-24T03:11:12.516Z,81.13
2018-07-24T03:12:12.530Z,81.42
2018-07-24T03:13:12.556Z,81.32
2018-07-24T03:14:12.561Z,81.81
2018-07-24T03:15:12.656Z,80.94
2018-07-24T03:16:12.722Z,81.23
2018-07-24T03:17:12.624Z,81.23
2018-07-24T03:18:12.640Z,81.42
2018-07-24T03:19:12.692Z,81.23
2018-07-24T03:20:12.667Z,81.42
2018-07-24T03:21:12.709Z,81.32
2018-07-24T03:22:12.699Z,81.42
2018-07-24T03:23:12.720Z,81.42
2018-07-24T03:24:12.749Z,81.13
2018-07-24T03:25:12.756Z,81.13
2018-07-24T03:26:12.765Z,80.80
2018-07-24T03:27:12.785Z,81.04
2018-07-24T03:28:12.809Z,80.94
2018-07-24T03:29:12.813Z,81.19
2018-07-24T03:30:12.829Z,81.04
2018-07-24T03:31:12.850Z,81.04
2018-07-24T03:32:12.861Z,81.23
2018-07-24T03:33:12.887Z,81.04
2018-07-24T03:34:12.901Z,81.23
2018-07-24T03:35:12.916Z,81.23
2018-07-24T03:36:12.932Z,81.04
2018-07-24T03:37:12.947Z,81.32
2018-07-24T03:38:12.961Z,81.23
2018-07-24T03:39:12.975Z,81.32
2018-07-24T03:40:13.045Z,81.32
2018-07-24T03:41:13.015Z,81.23
2018-07-24T03:42:13.039Z,81.23
2018-07-24T03:43:13.047Z,81.23
2018-07-24T03:44:13.062Z,81.23
2018-07-24T03:45:13.084Z,81.23
2018-07-24T03:46:13.235Z,81.13
2018-07-24T03:47:13.112Z,81.23
2018-07-24T03:48:13.125Z,81.04
2018-07-24T03:49:13.146Z,81.32
2018-07-24T03:50:13.167Z,80.55
2018-07-24T03:51:13.173Z,80.55
2018-07-24T03:52:13.219Z,80.75
2018-07-24T03:53:13.216Z,80.22
2018-07-24T03:54:13.235Z,80.22
2018-07-24T03:55:13.255Z,80.22
2018-07-24T03:56:13.263Z,79.88
2018-07-24T03:57:13.286Z,79.84
2018-07-24T03:58:13.419Z,80.42
2018-07-24T03:59:13.315Z,80.42
2018-07-24T04:00:13.329Z,80.55
2018-07-24T04:01:13.352Z,80.36
2018-07-24T04:02:13.419Z,80.36
2018-07-24T04:03:13.389Z,80.46
2018-07-24T04:04:13.451Z,80.65
2018-07-24T04:05:13.420Z,80.27
2018-07-24T04:06:13.435Z,80.75
2018-07-24T04:07:13.449Z,80.04
2018-07-24T04:08:13.468Z,80.22
2018-07-24T04:09:13.483Z,79.94
2018-07-24T04:10:13.549Z,80.13
2018-07-24T04:11:13.509Z,80.22
2018-07-24T04:12:13.528Z,80.71
2018-07-24T04:13:13.540Z,80.36
2018-07-24T04:14:13.563Z,80.27
2018-07-24T04:15:13.583Z,80.65
2018-07-24T04:16:13.647Z,80.75
2018-07-24T04:17:13.618Z,80.17
2018-07-24T04:18:13.624Z,80.13
2018-07-24T04:19:13.659Z,80.22
2018-07-24T04:20:13.663Z,80.22
2018-07-24T04:21:13.679Z,80.65
2018-07-24T04:22:13.817Z,80.55
2018-07-24T04:23:13.709Z,80.27
2018-07-24T04:24:13.720Z,80.27
2018-07-24T04:25:13.741Z,80.22
2018-07-24T04:26:13.761Z,80.32
2018-07-24T04:27:13.776Z,80.27
2018-07-24T04:28:13.871Z,80.46
2018-07-24T04:29:13.804Z,80.04
2018-07-24T04:30:13.828Z,80.36
2018-07-24T04:31:13.881Z,80.65
2018-07-24T04:32:13.862Z,79.84
2018-07-24T04:33:13.882Z,79.79
2018-07-24T04:34:13.969Z,80.07
2018-07-24T04:35:13.904Z,79.94
2018-07-24T04:36:13.930Z,79.94
2018-07-24T04:37:13.951Z,79.55
2018-07-24T04:38:13.957Z,79.36
2018-07-24T04:39:13.989Z,79.27
2018-07-24T04:40:14.077Z,78.98
2018-07-24T04:41:14.015Z,78.78
2018-07-24T04:42:14.026Z,78.78
2018-07-24T04:43:14.045Z,78.59
2018-07-24T04:44:14.067Z,78.78
2018-07-24T04:45:14.080Z,78.69
2018-07-24T04:46:14.173Z,78.78
2018-07-24T04:47:14.109Z,78.59
2018-07-24T04:48:14.121Z,79.17
2018-07-24T04:49:14.147Z,78.88
2018-07-24T04:50:14.159Z,79.17
2018-07-24T04:51:14.183Z,79.36
2018-07-24T04:52:14.310Z,79.84
2018-07-24T04:53:14.205Z,79.65
2018-07-24T04:54:14.223Z,79.36
2018-07-24T04:55:14.239Z,79.55
2018-07-24T04:56:14.252Z,79.36
2018-07-24T04:57:14.276Z,78.98
2018-07-24T04:58:14.340Z,78.98
2018-07-24T04:59:14.314Z,79.17
2018-07-24T05:00:14.321Z,78.59
2018-07-24T05:01:14.341Z,78.69
2018-07-24T05:02:14.356Z,78.69
2018-07-24T05:03:14.420Z,78.50
2018-07-24T05:04:14.446Z,78.11
2018-07-24T05:05:14.409Z,78.69
2018-07-24T05:06:14.434Z,78.69
2018-07-24T05:07:14.438Z,78.78
2018-07-24T05:08:14.463Z,79.17
2018-07-24T05:09:14.474Z,78.83
2018-07-24T05:10:14.552Z,78.50
2018-07-24T05:11:14.508Z,78.69
2018-07-24T05:12:14.526Z,78.78
2018-07-24T05:13:14.539Z,78.40
2018-07-24T05:14:14.553Z,78.73
2018-07-24T05:15:14.575Z,78.88
2018-07-24T05:16:14.640Z,79.17
2018-07-24T05:17:14.608Z,78.53
2018-07-24T05:18:14.631Z,78.83
2018-07-24T05:19:14.636Z,79.02
2018-07-24T05:20:14.659Z,79.21
2018-07-24T05:21:14.673Z,79.11
2018-07-24T05:22:14.687Z,78.73
2018-07-24T05:23:14.780Z,78.92
2018-07-24T05:24:14.718Z,78.92
2018-07-24T05:25:14.738Z,78.69
2018-07-24T05:26:14.819Z,78.92
2018-07-24T05:27:14.769Z,78.92
2018-07-24T05:28:14.833Z,79.21
2018-07-24T05:29:14.803Z,78.92
2018-07-24T05:30:14.822Z,78.73
2018-07-24T05:31:14.839Z,78.92
2018-07-24T05:32:14.855Z,78.92
2018-07-24T05:33:14.947Z,78.92
2018-07-24T05:34:14.936Z,79.02
2018-07-24T05:35:14.900Z,78.92
2018-07-24T05:36:14.917Z,78.25
2018-07-24T05:37:14.931Z,78.83
2018-07-24T05:38:14.947Z,78.92
2018-07-24T05:39:14.975Z,79.02
2018-07-24T05:40:15.048Z,78.83
2018-07-24T05:41:15.010Z,78.92
2018-07-24T05:42:15.114Z,78.92
2018-07-24T05:43:15.042Z,78.92
2018-07-24T05:44:15.055Z,78.73
2018-07-24T05:45:15.068Z,78.44
2018-07-24T05:46:15.141Z,78.02
2018-07-24T05:47:15.105Z,78.06
2018-07-24T05:48:15.188Z,78.25
2018-07-24T05:49:15.140Z,77.67
2018-07-24T05:50:15.158Z,77.86
2018-07-24T05:51:15.174Z,77.76
2018-07-24T05:52:15.253Z,77.96
2018-07-24T05:53:15.204Z,77.29
2018-07-24T05:54:15.302Z,78.34
2018-07-24T05:55:15.240Z,78.06
2018-07-24T05:56:15.257Z,78.34
2018-07-24T05:57:15.277Z,78.34
2018-07-24T05:58:15.357Z,78.34
2018-07-24T05:59:15.312Z,78.53
2018-07-24T06:00:15.319Z,78.38
2018-07-24T06:01:15.336Z,78.96
2018-07-24T06:02:15.352Z,79.02
2018-07-24T06:03:15.369Z,78.77
2018-07-24T06:04:15.434Z,78.86
2018-07-24T06:05:15.401Z,78.86
2018-07-24T06:06:15.419Z,78.86
2018-07-24T06:07:15.474Z,79.15
2018-07-24T06:08:15.456Z,79.35
2018-07-24T06:09:15.478Z,79.44
2018-07-24T06:10:15.540Z,79.73
2018-07-24T06:11:15.507Z,79.44
2018-07-24T06:12:15.528Z,79.35
2018-07-24T06:13:15.601Z,79.35
2018-07-24T06:14:15.558Z,79.35
2018-07-24T06:15:15.580Z,79.63
2018-07-24T06:16:15.640Z,79.63
2018-07-24T06:17:15.609Z,79.44
2018-07-24T06:18:15.632Z,80.02
2018-07-24T06:19:15.638Z,79.44
2018-07-24T06:20:15.656Z,79.35
2018-07-24T06:21:15.675Z,79.44
2018-07-24T06:22:15.737Z,79.63
2018-07-24T06:23:15.751Z,79.63
2018-07-24T06:24:15.779Z,79.77
2018-07-24T06:25:15.739Z,79.82
2018-07-24T06:26:15.758Z,79.86
2018-07-24T06:27:15.780Z,79.77
2018-07-24T06:28:15.851Z,79.86
2018-07-24T06:29:15.851Z,79.86
2018-07-24T06:30:15.847Z,79.96
2018-07-24T06:31:15.846Z,79.48
2018-07-24T06:32:15.866Z,79.48
2018-07-24T06:33:15.886Z,79.67
2018-07-24T06:34:15.945Z,80.25
2018-07-24T06:35:15.907Z,79.96
2018-07-24T06:36:15.926Z,80.44
2018-07-24T06:37:15.939Z,80.44
2018-07-24T06:38:15.960Z,80.35
2018-07-24T06:39:15.984Z,80.15
2018-07-24T06:40:16.047Z,80.44
2018-07-24T06:41:16.021Z,80.15
2018-07-24T06:42:16.031Z,80.06
2018-07-24T06:43:16.115Z,80.68
2018-07-24T06:44:16.091Z,80.48
2018-07-24T06:45:16.078Z,80.87
2018-07-24T06:46:16.101Z,81.48
2018-07-24T06:47:16.113Z,81.01
2018-07-24T06:48:16.129Z,81.68
2018-07-24T06:49:16.178Z,82.26
2018-07-24T06:50:16.170Z,82.39
2018-07-24T06:51:16.268Z,83.16
2018-07-24T06:52:16.244Z,82.87
2018-07-24T06:53:16.224Z,82.78
2018-07-24T06:54:16.238Z,83.64
2018-07-24T06:55:16.304Z,83.45
2018-07-24T06:56:16.270Z,82.87
2018-07-24T06:57:16.287Z,82.74
2018-07-24T06:58:16.351Z,82.35
2018-07-24T06:59:16.324Z,81.77
2018-07-24T07:00:16.342Z,81.54
2018-07-24T07:01:16.361Z,81.45
2018-07-24T07:02:16.466Z,81.06
2018-07-24T07:03:16.421Z,81.58
2018-07-24T07:04:16.459Z,82.26
2018-07-24T07:05:16.428Z,82.74
2018-07-24T07:06:16.439Z,83.26
2018-07-24T07:07:16.455Z,83.55
2018-07-24T07:08:16.557Z,84.12
2018-07-24T07:09:16.496Z,83.45
2018-07-24T07:10:16.661Z,84.42
2018-07-24T07:11:16.519Z,83.94
2018-07-24T07:12:16.540Z,83.64
2018-07-24T07:13:16.663Z,84.03
2018-07-24T07:14:16.613Z,83.94
2018-07-24T07:15:16.595Z,84.12
2018-07-24T07:16:16.724Z,83.84
2018-07-24T07:17:16.626Z,83.94
2018-07-24T07:18:16.662Z,83.55
2018-07-24T07:19:16.662Z,84.12
2018-07-24T07:20:16.687Z,83.94
2018-07-24T07:21:16.702Z,84.32
2018-07-24T07:22:16.766Z,83.89
2018-07-24T07:23:16.742Z,84.42
2018-07-24T07:24:16.754Z,84.52
2018-07-24T07:25:16.779Z,85.03
2018-07-24T07:26:16.856Z,84.98
2018-07-24T07:27:16.822Z,85.46
2018-07-24T07:28:16.873Z,85.89
2018-07-24T07:29:16.913Z,85.99
2018-07-24T07:30:16.851Z,86.24
2018-07-24T07:31:16.879Z,85.27
2018-07-24T07:32:16.970Z,85.80
2018-07-24T07:33:16.909Z,85.80
2018-07-24T07:34:16.977Z,86.08
2018-07-24T07:35:16.945Z,85.56
2018-07-24T07:36:16.955Z,85.71
2018-07-24T07:37:16.982Z,85.13
2018-07-24T07:38:17.001Z,84.99
2018-07-24T07:39:17.084Z,85.28
2018-07-24T07:40:17.085Z,84.70
2018-07-24T07:41:17.057Z,84.99
2018-07-24T07:42:17.069Z,84.80
2018-07-24T07:43:17.081Z,85.23
2018-07-24T07:44:17.113Z,86.14
2018-07-24T07:45:17.155Z,86.28
2018-07-24T07:46:17.254Z,86.38
2018-07-24T07:47:17.151Z,86.28
2018-07-24T07:48:17.167Z,86.13
2018-07-24T07:49:17.198Z,86.65
2018-07-24T07:50:17.217Z,87.04
2018-07-24T07:51:17.230Z,86.56
2018-07-24T07:52:17.296Z,87.00
2018-07-24T07:53:17.259Z,86.71
2018-07-24T07:54:17.277Z,86.22
2018-07-24T07:55:17.295Z,87.00
2018-07-24T07:56:17.313Z,86.61
2018-07-24T07:57:17.334Z,87.19
2018-07-24T07:58:17.347Z,87.04
2018-07-24T07:59:17.370Z,87.08
2018-07-24T08:00:17.386Z,87.27
2018-07-24T08:01:17.407Z,87.13
2018-07-24T08:02:17.424Z,86.94
2018-07-24T08:03:17.491Z,87.33
2018-07-24T08:04:17.609Z,86.85
2018-07-24T08:05:17.476Z,87.04
2018-07-24T08:06:17.496Z,86.89
2018-07-24T08:07:17.509Z,87.23
2018-07-24T08:08:17.542Z,87.41
2018-07-24T08:09:17.569Z,87.41
2018-07-24T08:10:17.631Z,87.03
2018-07-24T08:11:17.601Z,87.23
2018-07-24T08:12:17.682Z,87.03
2018-07-24T08:13:17.791Z,87.81
2018-07-24T08:14:17.648Z,87.13
2018-07-24T08:15:17.668Z,87.32
2018-07-24T08:16:17.743Z,87.66
2018-07-24T08:17:17.700Z,87.66
2018-07-24T08:18:17.726Z,87.52
2018-07-24T08:19:17.735Z,87.23
2018-07-24T08:20:17.762Z,88.06
2018-07-24T08:21:17.809Z,87.58
2018-07-24T08:22:17.884Z,87.19
2018-07-24T08:23:17.810Z,87.38
2018-07-24T08:24:17.834Z,87.58
2018-07-24T08:25:17.850Z,87.29
2018-07-24T08:26:17.866Z,87.38
2018-07-24T08:27:17.957Z,88.06
2018-07-24T08:28:17.952Z,87.19
2018-07-24T08:29:17.928Z,87.19
2018-07-24T08:30:17.951Z,86.66
2018-07-24T08:31:17.961Z,87.24
2018-07-24T08:32:17.981Z,87.15
2018-07-24T08:33:18.006Z,86.86
2018-07-24T08:34:18.017Z,87.24
2018-07-24T08:35:18.043Z,86.96
2018-07-24T08:36:18.052Z,86.57
2018-07-24T08:37:18.071Z,86.43
2018-07-24T08:38:18.098Z,86.08
2018-07-24T08:39:18.111Z,86.18
2018-07-24T08:40:18.124Z,86.76
2018-07-24T08:41:18.150Z,86.38
2018-07-24T08:42:18.174Z,86.28
2018-07-24T08:43:18.180Z,86.28
2018-07-24T08:44:18.202Z,86.47
2018-07-24T08:45:18.222Z,86.80
2018-07-24T08:46:18.233Z,86.80
2018-07-24T08:47:18.252Z,86.52
2018-07-24T08:48:18.310Z,86.56
2018-07-24T08:49:18.436Z,86.65
2018-07-24T08:50:18.308Z,86.69
2018-07-24T08:51:18.324Z,87.37
2018-07-24T08:52:18.541Z,86.55
2018-07-24T08:53:18.727Z,86.74
2018-07-24T08:54:18.590Z,87.23
2018-07-24T08:55:18.913Z,86.65
2018-07-24T08:56:18.427Z,86.55
2018-07-24T08:57:18.490Z,86.93
2018-07-24T08:58:18.565Z,87.08
2018-07-24T08:59:18.476Z,86.36
2018-07-24T09:00:18.494Z,86.32
2018-07-24T09:01:18.516Z,85.89
2018-07-24T09:02:18.535Z,85.02
2018-07-24T09:03:18.605Z,85.27
2018-07-24T09:04:18.671Z,85.22
2018-07-24T09:05:18.581Z,85.22
2018-07-24T09:06:18.611Z,85.12
2018-07-24T09:07:18.628Z,85.89
2018-07-24T09:08:18.651Z,85.22
2018-07-24T09:09:18.661Z,85.22
2018-07-24T09:10:18.793Z,85.12
2018-07-24T09:11:18.697Z,85.12
2018-07-24T09:12:18.714Z,85.12
2018-07-24T09:13:18.733Z,85.64
2018-07-24T09:14:18.749Z,85.45
2018-07-24T09:15:18.771Z,86.03
2018-07-24T09:16:18.845Z,85.55
2018-07-24T09:17:18.808Z,86.80
2018-07-24T09:18:18.835Z,86.03
2018-07-24T09:19:18.844Z,86.80
2018-07-24T09:20:18.872Z,86.61
2018-07-24T09:21:18.886Z,87.37
2018-07-24T09:22:18.953Z,88.04
2018-07-24T09:23:18.957Z,88.03
2018-07-24T09:24:18.942Z,87.44
2018-07-24T09:25:18.962Z,86.27
2018-07-24T09:26:18.978Z,86.22
2018-07-24T09:27:19.001Z,85.39
2018-07-24T09:28:19.017Z,84.91
2018-07-24T09:29:19.039Z,85.15
2018-07-24T09:30:19.049Z,85.15
2018-07-24T09:31:19.070Z,84.85
2018-07-24T09:32:19.089Z,84.60
2018-07-24T09:33:19.167Z,84.55
2018-07-24T09:34:19.127Z,82.49
2018-07-24T09:35:19.196Z,79.25
2018-07-24T09:36:19.172Z,77.44
2018-07-24T09:37:19.189Z,77.19
2018-07-24T09:38:19.207Z,73.58
2018-07-24T09:39:19.280Z,74.33
2018-07-24T09:40:19.292Z,74.45
2018-07-24T09:41:19.295Z,79.41
2018-07-24T09:42:19.287Z,83.07
2018-07-24T09:43:19.316Z,84.38
2018-07-24T09:44:19.341Z,84.14
2018-07-24T09:45:19.407Z,85.27
2018-07-24T09:46:19.373Z,85.75
2018-07-24T09:47:19.423Z,85.99
2018-07-24T09:48:19.413Z,83.84
2018-07-24T09:49:19.447Z,82.52
2018-07-24T09:50:19.459Z,81.18
2018-07-24T09:51:19.484Z,78.85
2018-07-24T09:52:19.497Z,79.72
2018-07-24T09:53:19.535Z,78.89
2018-07-24T09:54:19.547Z,78.48
2018-07-24T09:55:19.564Z,76.50
2018-07-24T09:56:19.641Z,74.49
2018-07-24T09:57:19.649Z,72.57
2018-07-24T09:58:19.619Z,73.06
2018-07-24T09:59:19.708Z,77.55
2018-07-24T10:00:19.674Z,82.95
2018-07-24T10:01:19.690Z,83.97
2018-07-24T10:02:19.712Z,84.67
2018-07-24T10:03:19.785Z,84.96
2018-07-24T10:04:19.751Z,84.53
2018-07-24T10:05:19.800Z,85.07
2018-07-24T10:06:19.795Z,85.07
2018-07-24T10:07:19.809Z,84.58
2018-07-24T10:08:19.835Z,84.63
2018-07-24T10:09:19.903Z,84.88
2018-07-24T10:10:19.877Z,85.25
2018-07-24T10:11:19.896Z,83.69
2018-07-24T10:12:19.920Z,80.50
2018-07-24T10:13:20.101Z,79.92
2018-07-24T10:14:19.962Z,80.50
2018-07-24T10:15:20.040Z,80.50
2018-07-24T10:16:20.011Z,79.28
2018-07-24T10:17:20.017Z,78.25
2018-07-24T10:18:20.047Z,78.40
2018-07-24T10:19:20.056Z,79.78
2018-07-24T10:20:20.081Z,82.46
2018-07-24T10:21:20.157Z,83.40
2018-07-24T10:22:20.197Z,84.72
2018-07-24T10:23:20.152Z,84.03
2018-07-24T10:24:20.245Z,82.27
2018-07-24T10:25:20.196Z,80.85
2018-07-24T10:26:20.212Z,79.04
2018-07-24T10:27:20.291Z,78.56
2018-07-24T10:28:20.256Z,77.97
2018-07-24T10:29:20.280Z,77.23
2018-07-24T10:30:20.353Z,77.23
2018-07-24T10:31:20.313Z,76.01
2018-07-24T10:32:20.343Z,76.68
2018-07-24T10:33:20.409Z,77.23
2018-07-24T10:34:20.375Z,78.38
2018-07-24T10:35:20.408Z,81.41
2018-07-24T10:36:20.491Z,81.74
2018-07-24T10:37:20.445Z,80.27
2018-07-24T10:38:20.472Z,79.14
2018-07-24T10:39:20.489Z,79.53
2018-07-24T10:40:20.516Z,79.59
2018-07-24T10:41:20.536Z,81.39
2018-07-24T10:42:20.570Z,83.06
2018-07-24T10:43:20.575Z,84.57
2018-07-24T10:44:20.599Z,85.02
2018-07-24T10:45:20.615Z,85.69
2018-07-24T10:46:20.629Z,85.15
2018-07-24T10:47:20.671Z,83.97
2018-07-24T10:48:20.686Z,81.82
2018-07-24T10:49:20.748Z,81.74
2018-07-24T10:50:20.716Z,82.62
2018-07-24T10:51:20.743Z,83.15
2018-07-24T10:52:20.769Z,84.07
2018-07-24T10:53:20.778Z,84.07
2018-07-24T10:54:20.808Z,84.17
2018-07-24T10:55:20.919Z,83.34
2018-07-24T10:56:20.845Z,81.09
2018-07-24T10:57:20.917Z,77.76
2018-07-24T10:58:20.886Z,74.85
2018-07-24T10:59:20.907Z,68.87
2018-07-24T11:00:20.929Z,68.84
2018-07-24T11:01:21.004Z,68.26
2018-07-24T11:02:20.969Z,68.16
2018-07-24T11:03:20.992Z,71.01
2018-07-24T11:04:21.017Z,71.64
2018-07-24T11:05:21.139Z,70.82
2018-07-24T11:06:21.064Z,70.86
2018-07-24T11:07:21.152Z,69.56
2018-07-24T11:08:21.097Z,69.78
2018-07-24T11:09:21.127Z,68.80
2018-07-24T11:10:21.144Z,68.74
2018-07-24T11:11:21.167Z,68.39
2018-07-24T11:12:21.195Z,68.16
2018-07-24T11:13:21.216Z,69.78
2018-07-24T11:14:21.232Z,72.89
2018-07-24T11:15:21.253Z,76.22
2018-07-24T11:16:21.281Z,79.74
2018-07-24T11:17:21.299Z,80.68
2018-07-24T11:18:21.324Z,81.06
2018-07-24T11:19:21.353Z,82.15
2018-07-24T11:20:21.450Z,81.51
2018-07-24T11:21:21.385Z,79.64
2018-07-24T11:22:21.481Z,76.90
2018-07-24T11:23:21.558Z,73.44
2018-07-24T11:24:21.449Z,74.67
2018-07-24T11:25:21.472Z,73.38
2018-07-24T11:26:21.547Z,72.21
2018-07-24T11:27:21.590Z,71.89
2018-07-24T11:28:21.609Z,69.29
2018-07-24T11:29:21.572Z,66.53
2018-07-24T11:30:21.580Z,66.27
2018-07-24T11:31:21.611Z,65.75
2018-07-24T11:32:21.673Z,64.87
2018-07-24T11:33:21.779Z,67.35
2018-07-24T11:34:21.671Z,68.03
2018-07-24T11:35:21.685Z,68.87
2018-07-24T11:36:21.795Z,67.02
2018-07-24T11:37:21.733Z,67.83
2018-07-24T11:38:21.809Z,69.65
2018-07-24T11:39:21.825Z,71.04
2018-07-24T11:40:21.818Z,69.07
2018-07-24T11:41:21.825Z,69.71
2018-07-24T11:42:21.848Z,70.75
2018-07-24T11:43:21.868Z,72.14
2018-07-24T11:44:21.941Z,72.92
2018-07-24T11:45:21.908Z,73.47
2018-07-24T11:46:21.932Z,71.01
2018-07-24T11:47:21.961Z,68.74
2018-07-24T11:48:21.983Z,67.08
2018-07-24T11:49:21.997Z,67.25
2018-07-24T11:50:22.082Z,68.12
2018-07-24T11:51:22.070Z,70.91
2018-07-24T11:52:22.075Z,72.63
2018-07-24T11:53:22.090Z,73.50
2018-07-24T11:54:22.118Z,73.85
2018-07-24T11:55:22.135Z,77.31
2018-07-24T11:56:22.167Z,78.13
2018-07-24T11:57:22.182Z,75.48
2018-07-24T11:58:22.192Z,72.64
2018-07-24T11:59:22.227Z,70.53
2018-07-24T12:00:22.248Z,69.84
2018-07-24T12:01:22.275Z,69.00
2018-07-24T12:02:22.286Z,69.62
2018-07-24T12:03:22.356Z,69.65
2018-07-24T12:04:22.365Z,68.68
2018-07-24T12:05:22.355Z,68.13
2018-07-24T12:06:22.377Z,67.35
2018-07-24T12:07:22.393Z,71.20
2018-07-24T12:08:22.469Z,74.44
2018-07-24T12:09:22.437Z,71.86
2018-07-24T12:10:22.519Z,69.75
2018-07-24T12:11:22.483Z,69.36
2018-07-24T12:12:22.511Z,67.70
2018-07-24T12:13:22.534Z,68.38
2018-07-24T12:14:22.547Z,70.98
2018-07-24T12:15:22.571Z,70.62
2018-07-24T12:16:22.679Z,68.19
2018-07-24T12:17:22.618Z,65.56
2018-07-24T12:18:22.638Z,66.89
2018-07-24T12:19:22.652Z,69.07
2018-07-24T12:20:22.734Z,66.41
2018-07-24T12:21:22.707Z,66.79
2018-07-24T12:22:22.750Z,68.42
2018-07-24T12:23:22.754Z,70.50
2018-07-24T12:24:22.768Z,75.89
2018-07-24T12:25:22.788Z,79.32
2018-07-24T12:26:22.822Z,81.27
2018-07-24T12:27:22.837Z,83.50
2018-07-24T12:28:22.859Z,80.58
2018-07-24T12:29:22.882Z,79.80
2018-07-24T12:30:22.901Z,77.90
2018-07-24T12:31:22.925Z,77.84
2018-07-24T12:32:22.999Z,76.07
2018-07-24T12:33:22.971Z,73.96
2018-07-24T12:34:22.988Z,73.71
2018-07-24T12:35:23.004Z,74.39
2018-07-24T12:36:23.031Z,72.96
2018-07-24T12:37:23.050Z,72.73
2018-07-24T12:38:23.087Z,72.54
2018-07-24T12:39:23.088Z,73.08
2018-07-24T12:40:23.119Z,73.18
2018-07-24T12:41:23.147Z,72.89
2018-07-24T12:42:23.157Z,71.37
2018-07-24T12:43:23.179Z,70.88
2018-07-24T12:44:23.202Z,71.95
2018-07-24T12:45:23.231Z,72.57
2018-07-24T12:46:23.245Z,73.32
2018-07-24T12:47:23.273Z,72.67
2018-07-24T12:48:23.292Z,74.74
2018-07-24T12:49:23.364Z,74.87
2018-07-24T12:50:23.338Z,74.68
2018-07-24T12:51:23.356Z,73.65
2018-07-24T12:52:23.530Z,72.61